Wednesday, May 23, 2018, 9:05 AM EDT
Back to Local

KBED, Bedford Hanscom Field

Location: Concord, MA, United States Lat: 42.467
Local Time: 9:05 AM EDT (13:05 GMT) Lon: -71.3
Time Zone: US/Eastern Elev: 134 ft

Show me the last for .
Show Decoded

2018-05-23 08:11 METAR KBED 231211Z 29008KT 10SM FEW012 SCT055 18/14 A2986 RMK AO2 T01780139 =
2018-05-23 07:56 METAR KBED 231156Z 29007KT 10SM CLR 17/13 A2986 RMK AO2 SLP124 70002 T01670133
                 10167 20122 51005 =
2018-05-23 06:56 METAR KBED 231056Z AUTO 26003KT 10SM FEW050 BKN120 14/12 A2986 RMK AO2 SLP124
                 T01440122 =
2018-05-23 05:56 METAR KBED 230956Z AUTO 00000KT 10SM OVC110 13/12 A2986 RMK AO2 SLP123 T01280117
                 =
2018-05-23 04:56 METAR KBED 230856Z AUTO 19003KT 10SM BKN070 OVC110 13/12 A2985 RMK AO2 SLP119
                 T01280117 56012 =
2018-05-23 04:41 METAR KBED 230841Z AUTO 00000KT 10SM SCT014 BKN065 OVC110 13/11 A2985 RMK AO2
                 T01280111 =
2018-05-23 03:56 METAR KBED 230756Z AUTO 21004KT 10SM OVC012 13/11 A2985 RMK AO2 SLP120 T01280111
                 =
2018-05-23 02:56 METAR KBED 230656Z AUTO 22005KT 10SM OVC010 13/11 A2986 RMK AO2 SLP122 T01280111
                 =
2018-05-23 01:56 METAR KBED 230556Z AUTO 21006KT 10SM OVC010 13/11 A2988 RMK AO2 SLP131 60000
                 T01280111 10139 20128 58022 =
2018-05-23 00:56 METAR KBED 230456Z AUTO 19006KT 10SM OVC011 13/11 A2991 RMK AO2 SLP139 T01280111
                 401890089 =
2018-05-22 23:56 METAR KBED 230356Z AUTO 21005KT 10SM BKN012 OVC027 13/11 A2994 RMK AO2 SLP150
                 T01280106 =
2018-05-22 23:41 METAR KBED 230341Z AUTO 23004KT 10SM BKN013 OVC028 13/11 A2995 RMK AO2 T01280106
                 =
2018-05-22 23:25 METAR KBED 230325Z AUTO 21007KT 10SM FEW014 OVC029 13/11 A2994 RMK AO2 T01280106
                 =
2018-05-22 22:56 METAR KBED 230256Z AUTO 19006KT 10SM BKN030 OVC047 13/10 A2995 RMK AO2 SLP154
                 60000 T01280100 58021 =
2018-05-22 21:56 METAR KBED 230156Z 19005KT 10SM OVC037 13/09 A2998 RMK AO2 SLP165 T01330094 =
2018-05-22 20:56 METAR KBED 230056Z 18006KT 10SM BKN043 13/09 A2999 RMK AO2 RAB12E24 SLP168 P0000
                 T01330089 =
2018-05-22 19:56 METAR KBED 222356Z 22005KT 10SM OVC045 14/09 A3001 RMK AO2 SLP175 60000
                 T01390089 10183 20139 58013 =
2018-05-22 18:56 METAR KBED 222256Z 22011KT 10SM FEW015 OVC065 15/09 A3002 RMK AO2 RAE12B35E51
                 SLP179 P0000 T01500094 =
2018-05-22 17:56 METAR KBED 222156Z 22009KT 10SM -RA SCT015 OVC070 17/09 A3005 RMK AO2 RAB45
                 SLP187 P0000 T01670094 =
2018-05-22 16:56 METAR KBED 222056Z AUTO 00000KT 9SM OVC075 17/16 A3005 RMK AO2 SLP189 60000
                 T01720156 56021 =
2018-05-22 15:56 METAR KBED 221956Z 18005KT 10SM OVC100 18/14 A3006 RMK AO2 RAE1857 SLP191 P0000
                 T01780139 =
2018-05-22 14:56 METAR KBED 221856Z 11005KT 10SM -RA OVC100 18/13 A3008 RMK AO2 RAE06B26 SLP200
                 P0000 T01780128 =
2018-05-22 13:56 METAR KBED 221756Z 12006KT 10SM -RA OVC100 18/13 A3011 RMK AO2 SLP209 P0000
                 60002 T01780133 10189 20156 56014 =
2018-05-22 12:56 METAR KBED 221656Z 00000KT 10SM -RA OVC100 19/16 A3012 RMK AO2 SLP214 P0001
                 T01890161 =
2018-05-22 11:56 METAR KBED 221556Z 00000KT 10SM -RA OVC100 18/14 A3014 RMK AO2 SLP218 P0000
                 T01830144 =
2018-05-22 10:56 METAR KBED 221456Z 00000KT 10SM -RA SCT070 BKN085 17/14 A3015 RMK AO2 RAB10
                 SLP223 P0001 60001 T01720144 50001 =
2018-05-22 09:56 METAR KBED 221356Z VRB03KT 10SM BKN160 17/12 A3016 RMK AO2 SLP223 T01720122 =

Support USWX by starting your Amazon purchase here.